Time;durP1;ratioP1;P1;durP2;ratioP2;P2;SDS_P1;SDS_P2;PMS_P1;PMS_P2;Temp;Humidity;BMP_temperature;BMP_pressure;BME280_temperature;BME280_humidity;BME280_pressure;Samples;Min_cycle;Max_cycle;Signal;HPM_P1;HPM_P2
2022/01/20 00:03:35;;;;;;;11.33;4.43;;;10.00;99.90;;;;;;5051175;28;20029;-68
2022/01/20 00:27:32;;;;;;;12.13;3.88;;;9.90;99.90;;;;;;5051388;28;20051;-69
2022/01/20 00:32:32;;;;;;;7.60;3.30;;;9.80;99.90;;;;;;5050536;28;20052;-69
2022/01/20 00:37:27;;;;;;;10.45;3.85;;;9.80;99.90;;;;;;5050729;28;20040;-69
2022/01/20 00:39:54;;;;;;;8.77;3.90;;;9.90;99.90;;;;;;5050539;28;20448;-69
2022/01/20 00:42:21;;;;;;;9.50;3.78;;;9.90;99.90;;;;;;5050757;28;20028;-69
2022/01/20 00:44:48;;;;;;;6.68;3.50;;;9.90;99.90;;;;;;5050614;28;20033;-67
2022/01/20 00:47:16;;;;;;;10.18;4.20;;;9.90;99.90;;;;;;5050881;28;20017;-69
2022/01/20 00:49:43;;;;;;;9.50;4.32;;;10.00;99.90;;;;;;5050462;28;20030;-69
2022/01/20 00:52:10;;;;;;;10.18;3.50;;;10.00;99.90;;;;;;5050340;28;20420;-69
2022/01/20 00:54:36;;;;;;;8.50;3.97;;;9.90;99.90;;;;;;5050317;28;20108;-69
2022/01/20 00:57:03;;;;;;;10.55;3.85;;;10.00;99.90;;;;;;5050405;28;20052;-70
2022/01/20 00:59:32;;;;;;;;;;;10.00;99.90;;;;;;5050964;28;20036;-70
2022/01/20 01:01:59;;;;;;;11.10;3.88;;;10.00;99.90;;;;;;5050487;28;19908;-69
2022/01/20 01:04:27;;;;;;;9.73;4.18;;;9.90;99.90;;;;;;5050404;28;20454;-68
2022/01/20 01:09:26;;;;;;;7.18;3.60;;;9.90;99.90;;;;;;5050096;28;20334;-70
2022/01/20 01:11:57;;;;;;;9.02;4.15;;;9.90;99.90;;;;;;5050359;28;20100;-68
2022/01/20 01:14:24;;;;;;;9.63;3.83;;;9.90;99.90;;;;;;5050674;28;20075;-70
2022/01/20 01:22:21;;;;;;;14.05;4.03;;;10.00;99.90;;;;;;5050370;28;20505;-69
2022/01/20 01:24:53;;;;;;;11.82;3.53;;;10.00;99.90;;;;;;5049911;28;20048;-69
2022/01/20 01:27:22;;;;;;;11.90;3.95;;;10.00;99.90;;;;;;5050311;28;20032;-70
2022/01/20 01:32:34;;;;;;;8.30;3.47;;;10.10;99.90;;;;;;5049982;28;20539;-69
2022/01/20 01:35:04;;;;;;;10.52;3.55;;;10.10;99.90;;;;;;5049845;28;20036;-68
2022/01/20 01:40:07;;;;;;;13.50;4.25;;;10.00;99.90;;;;;;5049988;28;20117;-69
2022/01/20 01:42:43;;;;;;;12.38;3.90;;;9.80;99.90;;;;;;5049809;28;20032;-69
2022/01/20 01:45:15;;;;;;;11.70;4.20;;;9.70;99.90;;;;;;5052768;28;20120;-69
2022/01/20 01:47:41;;;;;;;7.70;3.67;;;9.60;99.90;;;;;;5054139;28;20061;-69
2022/01/20 01:50:08;;;;;;;7.57;3.80;;;9.60;99.90;;;;;;5054062;28;20060;-68
2022/01/20 01:52:34;;;;;;;10.93;4.22;;;9.60;99.90;;;;;;5053864;28;20104;-70
2022/01/20 01:55:01;;;;;;;11.30;3.85;;;9.50;99.90;;;;;;5035238;28;20337;-70
2022/01/20 01:57:28;;;;;;;11.27;3.60;;;9.50;99.90;;;;;;5053489;28;20484;-69
2022/01/20 01:59:55;;;;;;;8.82;3.80;;;9.50;99.90;;;;;;5053708;28;20374;-70
2022/01/20 02:02:21;;;;;;;9.43;3.90;;;9.50;99.90;;;;;;5053691;28;20104;-70
2022/01/20 02:04:48;;;;;;;12.70;4.07;;;9.50;99.90;;;;;;5053761;28;20031;-70
2022/01/20 02:18:56;;;;;;;10.82;3.65;;;9.20;99.90;;;;;;5053542;28;20118;-65
2022/01/20 02:21:36;;;;;;;7.72;3.50;;;9.20;99.90;;;;;;5050384;28;20092;-64
2022/01/20 02:24:02;;;;;;;8.27;3.33;;;9.20;99.90;;;;;;5052810;28;20373;-69
2022/01/20 02:26:28;;;;;;;7.97;3.63;;;9.20;99.90;;;;;;5053267;28;20116;-68
2022/01/20 02:28:54;;;;;;;9.57;3.22;;;9.20;99.90;;;;;;5053161;28;20068;-66
2022/01/20 02:31:20;;;;;;;7.38;3.50;;;9.20;99.90;;;;;;5052878;28;20025;-69
2022/01/20 02:33:46;;;;;;;8.77;3.28;;;9.20;99.90;;;;;;5052976;28;20036;-70
2022/01/20 02:36:15;;;;;;;8.43;3.90;;;9.20;99.90;;;;;;5053035;28;20037;-69
2022/01/20 02:38:55;;;;;;;8.63;3.25;;;9.20;99.90;;;;;;5052720;28;20065;-69
2022/01/20 02:46:50;;;;;;;8.30;3.90;;;9.10;99.90;;;;;;5052819;28;20094;-69
2022/01/20 02:49:17;;;;;;;7.15;3.40;;;9.10;99.90;;;;;;5052535;28;20028;-70
2022/01/20 02:51:52;;;;;;;10.93;3.50;;;9.10;99.90;;;;;;5052427;28;20083;-69
2022/01/20 02:54:19;;;;;;;8.23;3.22;;;9.10;99.90;;;;;;5052881;28;20044;-69
2022/01/20 02:56:45;;;;;;;13.02;4.15;;;9.10;99.90;;;;;;5052382;28;20025;-69
2022/01/20 02:59:11;;;;;;;7.93;4.07;;;9.00;99.90;;;;;;5052339;28;20029;-69
2022/01/20 03:01:38;;;;;;;6.90;3.50;;;9.00;99.90;;;;;;5052297;28;20039;-68
2022/01/20 03:04:04;;;;;;;10.10;3.65;;;9.00;99.90;;;;;;5052444;28;20032;-70
2022/01/20 03:06:30;;;;;;;7.40;3.43;;;8.90;99.90;;;;;;5052132;28;20452;-69
2022/01/20 03:08:56;;;;;;;7.53;3.57;;;8.90;99.90;;;;;;5052535;28;20048;-70
2022/01/20 03:11:22;;;;;;;7.30;3.45;;;8.90;99.90;;;;;;5052100;28;20029;-69
2022/01/20 03:13:48;;;;;;;5.07;3.22;;;8.90;99.90;;;;;;5052435;28;20056;-69
2022/01/20 03:16:14;;;;;;;5.22;3.50;;;8.80;99.90;;;;;;5052415;28;20087;-69
2022/01/20 03:18:40;;;;;;;12.50;3.87;;;8.80;99.90;;;;;;5052088;28;20043;-69
2022/01/20 03:21:06;;;;;;;8.20;3.28;;;8.90;99.90;;;;;;5052482;28;20380;-69
2022/01/20 03:23:34;;;;;;;12.70;3.70;;;8.90;99.90;;;;;;5051903;28;20115;-68
2022/01/20 03:26:00;;;;;;;7.68;3.58;;;9.00;99.90;;;;;;5052078;28;20093;-69
2022/01/20 03:28:26;;;;;;;5.32;3.28;;;9.00;99.90;;;;;;5052012;28;20028;-69
2022/01/20 03:30:52;;;;;;;5.28;3.00;;;9.00;99.90;;;;;;5052171;28;20025;-69
2022/01/20 03:33:18;;;;;;;9.20;3.42;;;9.10;99.90;;;;;;5051888;28;20021;-68
2022/01/20 03:35:45;;;;;;;6.80;3.30;;;9.10;99.90;;;;;;5051809;28;20043;-69
2022/01/20 03:38:11;;;;;;;9.10;3.38;;;9.20;99.90;;;;;;5051477;28;20364;-69
2022/01/20 03:40:37;;;;;;;7.45;3.10;;;9.20;99.90;;;;;;5051194;28;20025;-68
2022/01/20 03:43:03;;;;;;;10.87;3.70;;;9.30;99.90;;;;;;5051827;28;20177;-69
2022/01/20 03:45:30;;;;;;;8.93;3.63;;;9.30;99.90;;;;;;5051527;28;20060;-68
2022/01/20 03:48:05;;;;;;;7.60;3.47;;;9.30;99.90;;;;;;5051512;28;20410;-69
2022/01/20 03:53:17;;;;;;;8.95;3.85;;;9.20;99.90;;;;;;5051409;28;20457;-70
2022/01/20 03:55:43;;;;;;;6.90;3.70;;;9.20;99.90;;;;;;5051486;28;20056;-69
2022/01/20 03:58:09;;;;;;;10.77;3.65;;;9.10;99.90;;;;;;5051439;28;20032;-68
2022/01/20 04:00:36;;;;;;;8.70;3.75;;;9.00;99.90;;;;;;5051354;28;20033;-69
2022/01/20 04:03:02;;;;;;;6.55;3.45;;;8.80;99.90;;;;;;5051459;28;20498;-68
2022/01/20 04:05:28;;;;;;;7.53;3.47;;;8.70;99.90;;;;;;5033206;28;20178;-68
2022/01/20 04:07:54;;;;;;;9.27;3.85;;;8.70;99.90;;;;;;5050969;28;20052;-70
2022/01/20 04:10:20;;;;;;;12.18;4.05;;;8.70;99.90;;;;;;5051862;28;20492;-69
2022/01/20 04:12:46;;;;;;;11.30;3.50;;;8.80;99.90;;;;;;5051847;28;20029;-70
2022/01/20 04:15:15;;;;;;;7.40;3.50;;;8.70;99.90;;;;;;5051826;28;20098;-70
2022/01/20 04:17:44;;;;;;;7.63;3.67;;;8.70;99.90;;;;;;5051393;28;20128;-70
2022/01/20 04:20:10;;;;;;;11.38;3.65;;;8.70;99.90;;;;;;5051313;28;20036;-70
2022/01/20 04:22:37;;;;;;;7.30;3.63;;;8.80;99.90;;;;;;5051509;28;20136;-70
2022/01/20 04:25:04;;;;;;;8.37;4.23;;;8.80;99.90;;;;;;5052149;28;20397;-70
2022/01/20 04:27:30;;;;;;;7.65;4.00;;;8.90;99.90;;;;;;5052230;28;20362;-70
2022/01/20 04:29:56;;;;;;;6.95;3.88;;;9.00;99.90;;;;;;5052594;28;20373;-69
2022/01/20 04:32:24;;;;;;;9.65;3.70;;;9.00;99.90;;;;;;5052344;28;20389;-69
2022/01/20 04:34:50;;;;;;;8.95;3.80;;;9.00;99.90;;;;;;5052371;28;20106;-68
2022/01/20 04:37:16;;;;;;;9.70;3.90;;;9.10;99.90;;;;;;5051985;28;20069;-68
2022/01/20 04:39:47;;;;;;;6.53;3.60;;;9.10;99.90;;;;;;5052118;28;20029;-70
2022/01/20 04:42:13;;;;;;;9.02;3.80;;;9.10;99.90;;;;;;5052510;28;20365;-69
2022/01/20 04:58:06;;;;;;;7.72;3.65;;;9.50;99.90;;;;;;5052051;28;20043;-68
2022/01/20 05:00:32;;;;;;;9.63;3.80;;;9.50;99.90;;;;;;5052015;28;20056;-70
2022/01/20 05:02:58;;;;;;;13.30;4.17;;;9.40;99.90;;;;;;5052135;28;20457;-68
2022/01/20 05:05:24;;;;;;;10.27;3.95;;;9.40;99.90;;;;;;5051630;28;20267;-71
2022/01/20 05:07:50;;;;;;;7.38;3.40;;;9.40;99.90;;;;;;5051163;28;20126;-71
2022/01/20 05:10:17;;;;;;;9.98;3.95;;;9.40;99.90;;;;;;5050367;28;20063;-71
2022/01/20 05:15:19;;;;;;;9.57;4.13;;;9.50;99.90;;;;;;5049627;28;20033;-70
2022/01/20 05:17:44;;;;;;;;;;;9.50;99.90;;;;;;5050810;28;20039;-71
2022/01/20 05:20:11;;;;;;;11.83;4.37;;;9.50;99.90;;;;;;5053145;28;19916;-65
2022/01/20 05:22:38;;;;;;;12.90;4.45;;;9.50;99.90;;;;;;5034582;28;20216;-70
2022/01/20 05:25:05;;;;;;;8.55;4.32;;;9.60;99.90;;;;;;5054642;28;20020;-70
2022/01/20 05:27:31;;;;;;;;;;;9.60;99.90;;;;;;5053990;28;20492;-70
2022/01/20 05:29:58;;;;;;;9.47;4.10;;;9.60;99.90;;;;;;5054249;28;19909;-70
2022/01/20 05:32:24;;;;;;;6.97;3.33;;;9.60;99.90;;;;;;5056344;28;20086;-72
2022/01/20 05:34:50;;;;;;;11.32;4.40;;;9.60;99.90;;;;;;5056882;28;20061;-71
2022/01/20 05:37:16;;;;;;;8.82;4.25;;;9.60;99.90;;;;;;5056472;28;20029;-71
2022/01/20 05:39:43;;;;;;;10.88;4.28;;;9.60;99.90;;;;;;5056278;28;20036;-70
2022/01/20 05:42:10;;;;;;;11.27;4.40;;;9.60;99.90;;;;;;5056310;28;20036;-71
2022/01/20 05:44:36;;;;;;;10.07;3.90;;;9.60;99.90;;;;;;5056539;28;20056;-71
2022/01/20 05:47:10;;;;;;;12.73;4.45;;;9.60;99.90;;;;;;5055931;28;20436;-71
2022/01/20 05:49:36;;;;;;;11.15;3.80;;;9.70;99.90;;;;;;5055877;28;20037;-71
2022/01/20 05:52:04;;;;;;;10.23;4.33;;;9.70;99.90;;;;;;5056165;28;20112;-70
2022/01/20 05:54:30;;;;;;;9.38;4.15;;;9.70;99.90;;;;;;5036214;28;20033;-70
2022/01/20 05:56:56;;;;;;;11.00;4.45;;;9.60;99.90;;;;;;5036476;28;20033;-71
2022/01/20 05:59:23;;;;;;;12.18;4.72;;;9.60;99.90;;;;;;5040412;28;20018;-71
2022/01/20 06:01:55;;;;;;;11.52;4.50;;;9.60;99.90;;;;;;5055748;28;20040;-70
2022/01/20 06:04:22;;;;;;;9.02;4.18;;;9.60;99.90;;;;;;5056031;28;20027;-72
2022/01/20 06:06:48;;;;;;;9.20;3.67;;;9.60;99.90;;;;;;5055961;28;20095;-70
2022/01/20 06:09:14;;;;;;;13.63;4.07;;;9.70;99.90;;;;;;5055792;28;20263;-70
2022/01/20 06:11:40;;;;;;;8.10;3.78;;;9.60;99.90;;;;;;5055502;28;20028;-71
2022/01/20 06:14:06;;;;;;;7.45;3.50;;;9.60;99.90;;;;;;5055634;28;20063;-71
2022/01/20 06:16:32;;;;;;;9.60;3.67;;;9.60;99.90;;;;;;5056217;28;20132;-71
2022/01/20 06:18:58;;;;;;;12.48;4.38;;;9.60;99.90;;;;;;5055931;28;20033;-69
2022/01/20 06:21:24;;;;;;;12.43;3.97;;;9.60;99.90;;;;;;5055595;28;20025;-70
2022/01/20 06:23:51;;;;;;;13.90;4.00;;;9.70;99.90;;;;;;5055662;28;20029;-70
2022/01/20 06:26:17;;;;;;;11.60;3.92;;;9.60;99.90;;;;;;5055655;28;20491;-71
2022/01/20 06:28:43;;;;;;;9.60;4.40;;;9.60;99.90;;;;;;5054111;28;20064;-70
2022/01/20 06:31:10;;;;;;;12.95;4.07;;;9.60;99.90;;;;;;5053557;28;20021;-67
2022/01/20 06:33:37;;;;;;;7.45;4.07;;;9.60;99.90;;;;;;5035285;28;20029;-65
2022/01/20 06:36:03;;;;;;;9.85;4.80;;;9.70;99.90;;;;;;5053176;28;20052;-70
2022/01/20 06:38:29;;;;;;;12.93;4.40;;;9.60;99.90;;;;;;5052983;28;20032;-70
2022/01/20 06:40:55;;;;;;;11.00;4.05;;;9.60;99.90;;;;;;5053145;28;20044;-71
2022/01/20 06:43:21;;;;;;;10.77;4.23;;;9.60;99.90;;;;;;5053427;28;20446;-70
2022/01/20 06:45:47;;;;;;;9.33;4.00;;;9.60;99.90;;;;;;5052762;28;20036;-69
2022/01/20 06:48:14;;;;;;;9.03;3.90;;;9.70;99.90;;;;;;5052629;28;20025;-71
2022/01/20 06:50:40;;;;;;;12.67;5.20;;;9.80;99.90;;;;;;5052613;28;20021;-70
2022/01/20 06:53:06;;;;;;;10.63;3.90;;;9.80;99.90;;;;;;5052457;28;20315;-71
2022/01/20 06:55:34;;;;;;;9.83;3.93;;;9.80;99.90;;;;;;5034173;28;20113;-72
2022/01/20 06:58:00;;;;;;;7.57;3.92;;;10.00;99.90;;;;;;5051836;28;20024;-71
2022/01/20 07:00:26;;;;;;;11.27;4.37;;;10.40;99.90;;;;;;5052047;28;20025;-71
2022/01/20 07:02:53;;;;;;;14.45;3.95;;;11.10;99.90;;;;;;5051849;28;20390;-71
2022/01/20 07:05:20;;;;;;;;;;;12.30;99.90;;;;;;5051954;28;20112;-70
2022/01/20 07:07:46;;;;;;;15.35;3.88;;;13.10;99.90;;;;;;5051522;28;20387;-74
2022/01/20 07:10:16;;;;;;;9.95;3.47;;;13.80;99.90;;;;;;5051523;28;20143;-70
2022/01/20 07:12:44;;;;;;;10.07;3.40;;;14.70;99.90;;;;;;5051579;28;20096;-70
2022/01/20 07:15:10;;;;;;;7.13;2.40;;;15.60;99.90;;;;;;5051664;28;20036;-71
2022/01/20 07:17:36;;;;;;;7.45;2.85;;;16.10;99.90;;;;;;5051859;28;20029;-72
2022/01/20 07:20:04;;;;;;;8.55;3.30;;;16.90;99.90;;;;;;5033964;28;20120;-69
2022/01/20 07:22:30;;;;;;;9.45;3.70;;;17.60;99.90;;;;;;5052397;28;20029;-70
2022/01/20 07:24:56;;;;;;;7.15;3.40;;;18.00;99.90;;;;;;5052388;28;20428;-70
2022/01/20 07:27:22;;;;;;;8.30;3.15;;;18.60;99.90;;;;;;5052369;28;20504;-71
2022/01/20 07:29:48;;;;;;;8.07;3.20;;;18.80;99.90;;;;;;5052229;28;20108;-70
2022/01/20 07:32:14;;;;;;;12.18;3.38;;;19.40;99.20;;;;;;5052144;28;20044;-70
2022/01/20 07:34:40;;;;;;;9.48;2.80;;;19.80;98.90;;;;;;5052030;28;20029;-70
2022/01/20 07:37:06;;;;;;;6.53;2.78;;;20.50;98.00;;;;;;5051963;28;20069;-71
2022/01/20 07:39:32;;;;;;;11.23;3.42;;;20.50;96.50;;;;;;5051972;28;20021;-70
2022/01/20 07:41:59;;;;;;;8.68;2.90;;;20.70;95.60;;;;;;5050993;28;20025;-74
2022/01/20 07:44:25;;;;;;;13.93;3.53;;;20.60;96.30;;;;;;5051491;28;20119;-75
2022/01/20 07:46:53;;;;;;;9.43;3.20;;;20.40;95.60;;;;;;5052240;28;20021;-73
2022/01/20 07:49:19;;;;;;;10.77;3.38;;;20.90;94.90;;;;;;5034162;28;20041;-71
2022/01/20 07:51:45;;;;;;;7.05;3.10;;;20.70;94.40;;;;;;5051136;28;20079;-71
2022/01/20 07:54:11;;;;;;;8.88;3.25;;;20.50;94.60;;;;;;5051996;28;20139;-74
2022/01/20 07:56:37;;;;;;;8.45;3.33;;;20.10;94.90;;;;;;5052490;28;20040;-73
2022/01/20 07:59:03;;;;;;;9.65;3.25;;;19.80;95.00;;;;;;5052614;28;20104;-72
2022/01/20 08:01:29;;;;;;;8.27;3.53;;;19.20;96.00;;;;;;5052632;28;20112;-73
2022/01/20 08:03:56;;;;;;;14.48;3.78;;;18.50;96.70;;;;;;5052372;28;20036;-73
2022/01/20 08:06:25;;;;;;;13.50;3.97;;;18.00;97.90;;;;;;5034160;28;20443;-72
2022/01/20 08:08:51;;;;;;;8.93;3.60;;;17.40;98.50;;;;;;5052623;28;20029;-72
2022/01/20 08:11:18;;;;;;;10.32;3.78;;;16.80;99.90;;;;;;5052256;28;20036;-73
2022/01/20 08:13:45;;;;;;;10.77;3.97;;;16.30;99.90;;;;;;5052364;28;20147;-73
2022/01/20 08:16:11;;;;;;;9.00;3.85;;;15.80;99.90;;;;;;5051983;28;20033;-71
2022/01/20 08:18:37;;;;;;;8.00;3.80;;;15.80;99.90;;;;;;5051236;28;20035;-74
2022/01/20 08:21:03;;;;;;;7.35;3.58;;;15.60;99.90;;;;;;5052334;28;20489;-74
2022/01/20 08:23:29;;;;;;;10.63;3.35;;;15.60;99.90;;;;;;5052285;28;20040;-72
2022/01/20 08:25:55;;;;;;;10.98;3.60;;;15.70;99.90;;;;;;5052119;28;20029;-74
2022/01/20 08:28:22;;;;;;;11.80;4.57;;;15.90;99.90;;;;;;5050324;28;20033;-72
2022/01/20 08:30:50;;;;;;;9.18;3.20;;;16.10;99.90;;;;;;5051484;28;20037;-72
2022/01/20 08:33:17;;;;;;;11.40;3.28;;;16.00;99.90;;;;;;5052057;28;20025;-74
2022/01/20 08:35:44;;;;;;;9.23;3.15;;;15.90;99.90;;;;;;5051992;28;20466;-71
2022/01/20 08:38:10;;;;;;;;;;;16.00;99.90;;;;;;5052226;28;20100;-74
2022/01/20 08:40:36;;;;;;;8.90;3.40;;;16.10;99.90;;;;;;5051699;28;19951;-73
2022/01/20 08:43:03;;;;;;;8.45;3.15;;;16.30;99.90;;;;;;5051880;28;20104;-74
2022/01/20 08:45:32;;;;;;;12.05;3.38;;;16.50;99.90;;;;;;5051685;28;20033;-72
2022/01/20 08:47:59;;;;;;;8.07;3.50;;;16.60;99.90;;;;;;5051322;28;20417;-73
2022/01/20 08:50:29;;;;;;;11.70;3.63;;;16.60;99.90;;;;;;5051443;28;20029;-74
2022/01/20 08:52:56;;;;;;;9.05;3.17;;;16.70;99.90;;;;;;5050780;28;20025;-74
2022/01/20 08:55:24;;;;;;;16.63;3.33;;;16.80;99.90;;;;;;5050600;28;20029;-73
2022/01/20 08:57:50;;;;;;;9.77;2.90;;;16.50;99.90;;;;;;5050830;28;20056;-73
2022/01/20 09:00:17;;;;;;;6.65;2.47;;;16.50;99.90;;;;;;5050708;28;20017;-73
2022/01/20 09:02:43;;;;;;;8.95;3.30;;;16.40;99.90;;;;;;5050859;28;20020;-74
2022/01/20 09:05:09;;;;;;;10.13;3.85;;;16.60;99.90;;;;;;5050384;28;20473;-73
2022/01/20 09:07:36;;;;;;;8.65;2.65;;;16.70;99.90;;;;;;5050085;28;20056;-72
2022/01/20 09:10:05;;;;;;;9.18;2.85;;;16.70;99.90;;;;;;5050530;28;20025;-74
2022/01/20 09:15:29;;;;;;;7.82;3.10;;;17.00;99.90;;;;;;5050270;28;20432;-73
2022/01/20 09:17:57;;;;;;;7.68;2.63;;;16.70;99.90;;;;;;5051942;28;20053;-73
2022/01/20 09:20:23;;;;;;;7.78;2.53;;;16.40;99.90;;;;;;5051373;28;20021;-74
2022/01/20 09:22:51;;;;;;;7.43;2.95;;;16.40;99.90;;;;;;5051383;28;20033;-73
2022/01/20 09:25:17;;;;;;;12.52;3.53;;;16.60;99.90;;;;;;5051416;28;20115;-73
2022/01/20 09:27:44;;;;;;;9.50;2.80;;;16.80;99.90;;;;;;5051730;28;20442;-73
2022/01/20 09:30:10;;;;;;;8.20;2.70;;;16.80;99.90;;;;;;5051108;28;20033;-73
2022/01/20 09:32:39;;;;;;;7.60;2.85;;;17.20;99.90;;;;;;5033092;28;20462;-72
2022/01/20 09:35:06;;;;;;;7.80;2.85;;;16.80;99.90;;;;;;5051760;28;20037;-73
2022/01/20 09:37:34;;;;;;;7.25;2.50;;;16.70;99.90;;;;;;5051606;28;20473;-73
2022/01/20 09:40:00;;;;;;;7.50;2.80;;;16.80;99.90;;;;;;5051715;28;20097;-73
2022/01/20 09:42:26;;;;;;;8.55;3.20;;;16.30;99.90;;;;;;5051364;28;20033;-73
2022/01/20 09:44:54;;;;;;;7.55;2.13;;;16.50;99.90;;;;;;5051631;28;20140;-73
2022/01/20 09:47:20;;;;;;;9.98;2.58;;;16.70;99.90;;;;;;5050984;28;20115;-72
2022/01/20 09:49:46;;;;;;;7.03;2.72;;;17.00;99.90;;;;;;5051226;28;20082;-74
2022/01/20 09:52:14;;;;;;;7.60;2.65;;;17.20;99.90;;;;;;5051357;28;20036;-72
2022/01/20 09:54:40;;;;;;;11.07;2.88;;;17.30;99.90;;;;;;5050540;28;20167;-72
2022/01/20 09:57:06;;;;;;;8.30;2.20;;;17.10;99.90;;;;;;5050814;28;20044;-71
2022/01/20 09:59:32;;;;;;;10.03;2.70;;;17.30;99.90;;;;;;5050388;28;20098;-73
2022/01/20 10:01:59;;;;;;;6.35;2.40;;;16.80;99.90;;;;;;5050865;28;20360;-73
2022/01/20 10:04:31;;;;;;;;;;;17.10;99.90;;;;;;5051453;28;20025;-73
2022/01/20 10:07:01;;;;;;;6.57;2.00;;;17.30;99.90;;;;;;5035776;28;19931;-73
2022/01/20 10:09:34;;;;;;;8.20;2.10;;;17.30;99.30;;;;;;5054297;28;20529;-72
2022/01/20 10:12:01;;;;;;;9.32;2.50;;;17.10;99.10;;;;;;5053813;28;20168;-72
2022/01/20 10:14:42;;;;;;;9.25;2.55;;;16.90;99.20;;;;;;5054477;28;20373;-73
2022/01/20 10:17:22;;;;;;;6.55;1.92;;;17.00;99.80;;;;;;5054064;28;20126;-73
2022/01/20 10:19:54;;;;;;;9.75;2.50;;;16.40;99.90;;;;;;5053875;28;20035;-72
2022/01/20 10:22:23;;;;;;;9.25;2.40;;;16.50;99.90;;;;;;5054145;28;20033;-72
2022/01/20 10:25:04;;;;;;;9.60;2.80;;;16.50;99.90;;;;;;5035651;28;20112;-71
2022/01/20 10:27:55;;;;;;;7.05;2.13;;;16.60;99.90;;;;;;5035683;28;20033;-71
2022/01/20 10:30:27;;;;;;;6.38;1.98;;;16.50;99.90;;;;;;5053919;28;20017;-71
2022/01/20 10:32:58;;;;;;;8.48;2.20;;;16.30;99.90;;;;;;5053990;28;20124;-72
2022/01/20 10:35:27;;;;;;;6.93;2.72;;;16.30;99.90;;;;;;5035478;28;20167;-73
2022/01/20 10:38:00;;;;;;;6.55;2.22;;;16.30;99.90;;;;;;5053207;28;20033;-72
2022/01/20 10:40:27;;;;;;;7.00;1.95;;;16.20;99.90;;;;;;5053217;28;20036;-72
2022/01/20 10:42:53;;;;;;;5.88;2.50;;;16.00;99.90;;;;;;5053361;28;20151;-72
2022/01/20 10:45:26;;;;;;;6.63;2.30;;;15.70;99.90;;;;;;5052442;28;20043;-74
2022/01/20 10:47:55;;;;;;;5.65;2.47;;;15.70;99.90;;;;;;5053202;28;20021;-72
2022/01/20 10:50:30;;;;;;;9.93;2.75;;;15.50;99.90;;;;;;5053180;28;20350;-71
2022/01/20 10:52:56;;;;;;;7.05;2.38;;;15.50;99.90;;;;;;5052907;28;20017;-73
2022/01/20 10:55:28;;;;;;;9.77;2.47;;;15.50;99.90;;;;;;5052836;28;20040;-72
2022/01/20 10:57:56;;;;;;;7.75;2.50;;;15.40;99.90;;;;;;5053285;28;20128;-72
2022/01/20 11:00:25;;;;;;;7.55;2.30;;;15.30;99.90;;;;;;5052368;28;20032;-72
2022/01/20 11:02:55;;;;;;;9.82;3.17;;;15.20;99.90;;;;;;5052419;28;20044;-71
2022/01/20 11:05:22;;;;;;;6.38;2.42;;;15.10;99.90;;;;;;5052258;28;20029;-72
2022/01/20 11:07:49;;;;;;;9.35;3.28;;;15.00;99.90;;;;;;5052278;28;20428;-68
2022/01/20 11:10:17;;;;;;;10.98;3.15;;;14.90;99.90;;;;;;5052358;28;20059;-73
2022/01/20 11:12:43;;;;;;;16.63;2.92;;;14.80;99.90;;;;;;5033862;28;20025;-72
2022/01/20 11:15:13;;;;;;;8.35;2.85;;;14.70;99.90;;;;;;5051893;28;20123;-72
2022/01/20 11:17:41;;;;;;;12.00;2.80;;;14.70;99.90;;;;;;5050995;28;20185;-71
2022/01/20 11:20:14;;;;;;;8.68;3.17;;;14.60;99.90;;;;;;5051583;28;20060;-70
2022/01/20 11:23:02;;;;;;;12.35;3.38;;;14.50;99.90;;;;;;5051765;28;20112;-71
2022/01/20 11:25:31;;;;;;;8.27;3.30;;;14.40;99.90;;;;;;5052826;28;20036;-70
2022/01/20 11:28:10;;;;;;;12.93;3.20;;;14.30;99.90;;;;;;5052293;28;20033;-70
2022/01/20 11:30:40;;;;;;;12.98;3.10;;;14.30;99.90;;;;;;5052029;28;20028;-70
2022/01/20 11:33:09;;;;;;;8.57;2.78;;;14.30;99.90;;;;;;5052994;28;20071;-70
2022/01/20 11:35:43;;;;;;;10.23;2.95;;;14.10;99.90;;;;;;5052531;28;20100;-70
2022/01/20 11:38:11;;;;;;;10.32;3.30;;;14.20;99.90;;;;;;5034422;28;20384;-70
2022/01/20 11:41:00;;;;;;;7.40;3.00;;;14.10;99.90;;;;;;5052570;28;20108;-70
2022/01/20 11:43:41;;;;;;;9.73;3.05;;;14.00;99.90;;;;;;5052587;28;20040;-71
2022/01/20 11:46:20;;;;;;;7.47;3.22;;;14.00;99.90;;;;;;5052518;28;20497;-71
2022/01/20 11:49:03;;;;;;;8.93;3.20;;;13.90;99.90;;;;;;5051933;28;20025;-70
2022/01/20 11:51:43;;;;;;;10.02;3.20;;;13.90;99.90;;;;;;5052008;28;20056;-69
2022/01/20 11:54:09;;;;;;;8.13;3.17;;;13.90;99.90;;;;;;5051944;28;20040;-71
2022/01/20 11:56:38;;;;;;;11.05;3.30;;;13.90;99.90;;;;;;5051770;28;20036;-70
2022/01/20 11:59:07;;;;;;;11.55;3.40;;;13.90;99.90;;;;;;5052232;28;20071;-70
2022/01/20 12:01:49;;;;;;;8.55;3.60;;;14.00;99.90;;;;;;5051149;28;20086;-70
2022/01/20 12:04:16;;;;;;;10.48;3.58;;;14.00;99.90;;;;;;5050793;28;20031;-70
2022/01/20 12:06:45;;;;;;;8.48;3.38;;;14.00;99.90;;;;;;5051155;28;20049;-69
2022/01/20 12:09:13;;;;;;;8.75;3.40;;;14.10;99.90;;;;;;5051819;28;20091;-69
2022/01/20 12:11:41;;;;;;;8.10;3.13;;;14.20;99.90;;;;;;5051472;28;20039;-69
2022/01/20 12:14:08;;;;;;;11.27;3.10;;;14.40;99.90;;;;;;5050956;28;20105;-70
2022/01/20 12:16:36;;;;;;;11.48;2.72;;;14.50;99.90;;;;;;5051359;28;20587;-70
2022/01/20 12:19:04;;;;;;;8.57;3.45;;;14.60;99.90;;;;;;5052205;28;20032;-73
2022/01/20 12:21:32;;;;;;;6.13;3.10;;;14.60;99.90;;;;;;5051784;28;20025;-70
2022/01/20 12:23:59;;;;;;;8.70;3.00;;;14.80;99.90;;;;;;5051248;28;20037;-70
2022/01/20 12:26:25;;;;;;;10.27;3.22;;;14.90;99.90;;;;;;5052282;28;20029;-71
2022/01/20 12:29:06;;;;;;;10.32;3.40;;;15.20;99.90;;;;;;5051347;28;20028;-71
2022/01/20 12:31:43;;;;;;;9.82;3.10;;;15.90;99.90;;;;;;5051227;28;20040;-70
2022/01/20 12:34:12;;;;;;;6.90;2.83;;;16.30;99.90;;;;;;5033194;28;20063;-71
2022/01/20 12:36:39;;;;;;;7.50;2.78;;;16.90;99.90;;;;;;5050875;28;20091;-71
2022/01/20 12:39:06;;;;;;;8.07;2.97;;;17.20;99.90;;;;;;5046203;28;20017;-70
2022/01/20 12:41:33;;;;;;;6.25;3.20;;;17.50;99.90;;;;;;5034424;28;20387;-69
2022/01/20 12:44:05;;;;;;;7.22;2.70;;;17.30;99.90;;;;;;5051937;28;20017;-71
2022/01/20 12:46:39;;;;;;;7.95;3.10;;;17.20;99.90;;;;;;5051831;28;20124;-72
2022/01/20 12:49:12;;;;;;;5.32;2.63;;;17.00;99.90;;;;;;5051513;28;20028;-71
2022/01/20 12:51:40;;;;;;;7.70;2.40;;;17.00;99.90;;;;;;5052168;28;20047;-72
2022/01/20 12:54:13;;;;;;;5.03;2.30;;;17.00;99.90;;;;;;5051457;28;20100;-72
2022/01/20 12:56:45;;;;;;;8.50;2.80;;;16.80;99.90;;;;;;5052402;28;20041;-70
2022/01/20 12:59:12;;;;;;;8.50;2.50;;;16.80;99.90;;;;;;5050902;28;20435;-72
2022/01/20 13:01:40;;;;;;;4.60;2.00;;;16.90;99.90;;;;;;5051593;28;20396;-72
2022/01/20 13:04:08;;;;;;;11.95;2.10;;;17.20;99.50;;;;;;5051892;28;20416;-71
2022/01/20 13:06:35;;;;;;;5.68;1.85;;;17.40;97.30;;;;;;5052036;28;20060;-70
2022/01/20 13:09:21;;;;;;;5.97;2.53;;;17.50;97.10;;;;;;5052410;28;20113;-71
2022/01/20 13:11:59;;;;;;;;;;;17.80;97.30;;;;;;5052879;28;20053;-73
2022/01/20 13:14:36;;;;;;;5.57;1.70;;;17.60;97.00;;;;;;5052543;28;19995;-71
2022/01/20 13:17:03;;;;;;;5.82;1.98;;;17.90;96.70;;;;;;5052834;28;20473;-71
2022/01/20 13:19:44;;;;;;;5.97;1.77;;;17.80;96.40;;;;;;5052449;28;20119;-68
2022/01/20 13:22:30;;;;;;;11.30;1.77;;;18.10;96.00;;;;;;5052439;28;20044;-70
2022/01/20 13:25:16;;;;;;;6.10;2.17;;;18.10;96.40;;;;;;5052334;28;20040;-71
2022/01/20 13:27:55;;;;;;;5.95;2.00;;;17.90;96.10;;;;;;5052343;28;20067;-72
2022/01/20 13:30:36;;;;;;;8.20;2.13;;;17.80;96.10;;;;;;5053062;28;20021;-72
2022/01/20 13:33:12;;;;;;;3.60;1.70;;;17.90;96.30;;;;;;5052837;28;20107;-71
2022/01/20 13:35:40;;;;;;;6.53;2.13;;;17.80;95.80;;;;;;5052850;28;20424;-72
2022/01/20 13:38:08;;;;;;;7.63;2.10;;;17.60;96.00;;;;;;5052199;28;20086;-71
2022/01/20 13:40:39;;;;;;;5.70;2.08;;;17.50;95.80;;;;;;5053977;28;20514;-71
2022/01/20 13:45:42;;;;;;;2.85;1.73;;;17.10;95.40;;;;;;5056247;28;20033;-71
2022/01/20 13:48:09;;;;;;;5.63;1.98;;;17.00;95.90;;;;;;5056263;28;20085;-72
2022/01/20 13:50:39;;;;;;;6.40;1.90;;;17.10;96.70;;;;;;5056035;28;20428;-72
2022/01/20 13:53:14;;;;;;;6.63;2.00;;;17.30;96.30;;;;;;5055685;28;20025;-72
2022/01/20 13:55:45;;;;;;;4.97;1.77;;;17.30;96.30;;;;;;5055945;28;20028;-71
2022/01/20 13:58:25;;;;;;;5.47;1.90;;;17.00;96.60;;;;;;5055901;28;20036;-71
2022/01/20 14:00:52;;;;;;;5.22;1.70;;;17.10;96.60;;;;;;5056159;28;20028;-72
2022/01/20 14:03:19;;;;;;;6.03;2.10;;;16.90;96.10;;;;;;5055476;28;20061;-70
2022/01/20 14:05:45;;;;;;;6.22;2.10;;;17.00;96.10;;;;;;5055270;28;20021;-71
2022/01/20 14:08:11;;;;;;;3.60;1.90;;;16.90;96.20;;;;;;5055137;28;20551;-70
2022/01/20 14:10:38;;;;;;;5.32;2.10;;;16.90;96.20;;;;;;5056109;28;20454;-73
2022/01/20 14:13:04;;;;;;;6.63;1.77;;;16.80;96.30;;;;;;5055859;28;20033;-72
2022/01/20 14:15:30;;;;;;;15.55;2.13;;;16.60;96.60;;;;;;5055659;28;20041;-71
2022/01/20 14:17:59;;;;;;;7.53;2.10;;;16.40;96.90;;;;;;5055736;28;20029;-71
2022/01/20 14:20:29;;;;;;;6.00;2.15;;;16.20;97.60;;;;;;5055463;28;20029;-71